sensor_id;sensor_type;location;lat;lon;timestamp;temperature;humidity
33328;DHT22;19692;52.998;9.116;2023-05-07T00:01:28;10.10;99.90
33328;DHT22;19692;52.998;9.116;2023-05-07T00:03:54;10.10;99.90
33328;DHT22;19692;52.998;9.116;2023-05-07T00:06:19;10.10;99.90
33328;DHT22;19692;52.998;9.116;2023-05-07T00:08:45;10.10;99.90
33328;DHT22;19692;52.998;9.116;2023-05-07T00:11:11;10.00;99.90
33328;DHT22;19692;52.998;9.116;2023-05-07T00:13:36;10.00;99.90
33328;DHT22;19692;52.998;9.116;2023-05-07T00:16:03;9.90;99.90
33328;DHT22;19692;52.998;9.116;2023-05-07T00:18:29;9.80;99.90
33328;DHT22;19692;52.998;9.116;2023-05-07T00:20:55;9.80;99.90
33328;DHT22;19692;52.998;9.116;2023-05-07T00:23:21;9.80;99.90
33328;DHT22;19692;52.998;9.116;2023-05-07T00:25:47;9.80;99.90
33328;DHT22;19692;52.998;9.116;2023-05-07T00:28:13;9.80;99.90
33328;DHT22;19692;52.998;9.116;2023-05-07T00:30:39;9.80;99.90
33328;DHT22;19692;52.998;9.116;2023-05-07T00:33:05;9.80;99.90
33328;DHT22;19692;52.998;9.116;2023-05-07T00:35:31;9.90;99.90
33328;DHT22;19692;52.998;9.116;2023-05-07T00:37:58;9.80;99.90
33328;DHT22;19692;52.998;9.116;2023-05-07T00:40:23;9.80;99.90
33328;DHT22;19692;52.998;9.116;2023-05-07T00:42:49;9.90;99.90
33328;DHT22;19692;52.998;9.116;2023-05-07T00:45:15;9.90;99.90
33328;DHT22;19692;52.998;9.116;2023-05-07T00:47:42;9.90;99.90
33328;DHT22;19692;52.998;9.116;2023-05-07T00:50:09;10.00;99.90
33328;DHT22;19692;52.998;9.116;2023-05-07T00:52:38;9.90;99.90
33328;DHT22;19692;52.998;9.116;2023-05-07T00:55:05;9.90;99.90
33328;DHT22;19692;52.998;9.116;2023-05-07T00:57:37;9.90;99.90
33328;DHT22;19692;52.998;9.116;2023-05-07T01:00:07;9.90;99.90
33328;DHT22;19692;52.998;9.116;2023-05-07T01:02:35;9.90;99.90
33328;DHT22;19692;52.998;9.116;2023-05-07T01:05:01;9.90;99.90
33328;DHT22;19692;52.998;9.116;2023-05-07T01:07:29;9.80;99.90
33328;DHT22;19692;52.998;9.116;2023-05-07T01:09:55;9.80;99.90
33328;DHT22;19692;52.998;9.116;2023-05-07T01:12:21;9.70;99.90
33328;DHT22;19692;52.998;9.116;2023-05-07T01:14:47;9.80;99.90
33328;DHT22;19692;52.998;9.116;2023-05-07T01:17:15;9.70;99.90
33328;DHT22;19692;52.998;9.116;2023-05-07T01:19:42;9.70;99.90
33328;DHT22;19692;52.998;9.116;2023-05-07T01:22:09;9.70;99.90
33328;DHT22;19692;52.998;9.116;2023-05-07T01:24:37;9.60;99.90
33328;DHT22;19692;52.998;9.116;2023-05-07T01:27:03;9.60;99.90
33328;DHT22;19692;52.998;9.116;2023-05-07T01:29:29;9.60;99.90
33328;DHT22;19692;52.998;9.116;2023-05-07T01:31:57;9.60;99.90
33328;DHT22;19692;52.998;9.116;2023-05-07T01:34:25;9.60;99.90
33328;DHT22;19692;52.998;9.116;2023-05-07T01:36:54;9.50;99.90
33328;DHT22;19692;52.998;9.116;2023-05-07T01:39:31;9.50;99.90
33328;DHT22;19692;52.998;9.116;2023-05-07T01:41:59;9.50;99.90
33328;DHT22;19692;52.998;9.116;2023-05-07T01:44:25;9.50;99.90
33328;DHT22;19692;52.998;9.116;2023-05-07T01:46:51;9.30;99.90
33328;DHT22;19692;52.998;9.116;2023-05-07T01:49:18;9.30;99.90
33328;DHT22;19692;52.998;9.116;2023-05-07T01:51:44;9.30;99.90
33328;DHT22;19692;52.998;9.116;2023-05-07T01:54:10;9.40;99.90
33328;DHT22;19692;52.998;9.116;2023-05-07T01:56:36;9.40;99.90
33328;DHT22;19692;52.998;9.116;2023-05-07T01:59:01;9.40;99.90
33328;DHT22;19692;52.998;9.116;2023-05-07T02:01:27;9.40;99.90
33328;DHT22;19692;52.998;9.116;2023-05-07T02:03:53;9.40;99.90
33328;DHT22;19692;52.998;9.116;2023-05-07T02:06:19;9.40;99.90
33328;DHT22;19692;52.998;9.116;2023-05-07T02:08:46;9.30;99.90
33328;DHT22;19692;52.998;9.116;2023-05-07T02:11:12;9.40;99.90
33328;DHT22;19692;52.998;9.116;2023-05-07T02:13:38;9.40;99.90
33328;DHT22;19692;52.998;9.116;2023-05-07T02:16:04;9.40;99.90
33328;DHT22;19692;52.998;9.116;2023-05-07T02:18:30;9.40;99.90
33328;DHT22;19692;52.998;9.116;2023-05-07T02:20:57;9.40;99.90
33328;DHT22;19692;52.998;9.116;2023-05-07T02:23:22;9.40;99.90
33328;DHT22;19692;52.998;9.116;2023-05-07T02:25:48;9.50;99.90
33328;DHT22;19692;52.998;9.116;2023-05-07T02:28:14;9.50;99.90
33328;DHT22;19692;52.998;9.116;2023-05-07T02:30:40;9.50;99.90
33328;DHT22;19692;52.998;9.116;2023-05-07T02:33:06;9.40;99.90
33328;DHT22;19692;52.998;9.116;2023-05-07T02:35:33;9.30;99.90
33328;DHT22;19692;52.998;9.116;2023-05-07T02:37:59;9.40;99.90
33328;DHT22;19692;52.998;9.116;2023-05-07T02:40:25;9.40;99.90
33328;DHT22;19692;52.998;9.116;2023-05-07T02:42:50;9.40;99.90
33328;DHT22;19692;52.998;9.116;2023-05-07T02:45:16;9.40;99.90
33328;DHT22;19692;52.998;9.116;2023-05-07T02:47:42;9.40;99.90
33328;DHT22;19692;52.998;9.116;2023-05-07T02:50:07;9.50;99.90
33328;DHT22;19692;52.998;9.116;2023-05-07T02:52:33;9.40;99.90
33328;DHT22;19692;52.998;9.116;2023-05-07T02:54:59;9.40;99.90
33328;DHT22;19692;52.998;9.116;2023-05-07T02:57:24;9.30;99.90
33328;DHT22;19692;52.998;9.116;2023-05-07T02:59:50;9.30;99.90
33328;DHT22;19692;52.998;9.116;2023-05-07T03:02:16;9.30;99.90
33328;DHT22;19692;52.998;9.116;2023-05-07T03:04:42;9.30;99.90
33328;DHT22;19692;52.998;9.116;2023-05-07T03:07:08;9.30;99.90
33328;DHT22;19692;52.998;9.116;2023-05-07T03:09:33;9.30;99.90
33328;DHT22;19692;52.998;9.116;2023-05-07T03:11:59;9.20;99.90
33328;DHT22;19692;52.998;9.116;2023-05-07T03:14:25;9.30;99.90
33328;DHT22;19692;52.998;9.116;2023-05-07T03:16:51;9.30;99.90
33328;DHT22;19692;52.998;9.116;2023-05-07T03:19:16;9.20;99.90
33328;DHT22;19692;52.998;9.116;2023-05-07T03:21:42;9.10;99.90
33328;DHT22;19692;52.998;9.116;2023-05-07T03:24:08;9.10;99.90
33328;DHT22;19692;52.998;9.116;2023-05-07T03:26:33;9.20;99.90
33328;DHT22;19692;52.998;9.116;2023-05-07T03:28:59;9.20;99.90
33328;DHT22;19692;52.998;9.116;2023-05-07T03:31:25;9.20;99.90
33328;DHT22;19692;52.998;9.116;2023-05-07T03:33:55;9.20;99.90
33328;DHT22;19692;52.998;9.116;2023-05-07T03:36:22;9.20;99.90
33328;DHT22;19692;52.998;9.116;2023-05-07T03:38:49;9.30;99.90
33328;DHT22;19692;52.998;9.116;2023-05-07T03:41:15;9.20;99.90
33328;DHT22;19692;52.998;9.116;2023-05-07T03:43:41;9.30;99.90
33328;DHT22;19692;52.998;9.116;2023-05-07T03:46:07;9.30;99.90
33328;DHT22;19692;52.998;9.116;2023-05-07T03:48:32;9.30;99.90
33328;DHT22;19692;52.998;9.116;2023-05-07T03:50:58;9.40;99.90
33328;DHT22;19692;52.998;9.116;2023-05-07T03:53:24;9.40;99.90
33328;DHT22;19692;52.998;9.116;2023-05-07T03:55:50;9.40;99.90
33328;DHT22;19692;52.998;9.116;2023-05-07T03:58:16;9.40;99.90
33328;DHT22;19692;52.998;9.116;2023-05-07T04:00:42;9.40;99.90
33328;DHT22;19692;52.998;9.116;2023-05-07T04:03:07;9.40;99.90
33328;DHT22;19692;52.998;9.116;2023-05-07T04:05:33;9.40;99.90
33328;DHT22;19692;52.998;9.116;2023-05-07T04:07:59;9.40;99.90
33328;DHT22;19692;52.998;9.116;2023-05-07T04:10:25;9.40;99.90
33328;DHT22;19692;52.998;9.116;2023-05-07T04:12:51;9.40;99.90
33328;DHT22;19692;52.998;9.116;2023-05-07T04:15:17;9.40;99.90
33328;DHT22;19692;52.998;9.116;2023-05-07T04:17:42;9.40;99.90
33328;DHT22;19692;52.998;9.116;2023-05-07T04:20:15;9.40;99.90
33328;DHT22;19692;52.998;9.116;2023-05-07T04:22:41;9.50;99.90
33328;DHT22;19692;52.998;9.116;2023-05-07T04:25:08;9.40;99.90
33328;DHT22;19692;52.998;9.116;2023-05-07T04:27:37;9.40;99.90
33328;DHT22;19692;52.998;9.116;2023-05-07T04:30:03;9.40;99.90
33328;DHT22;19692;52.998;9.116;2023-05-07T04:32:29;9.40;99.90
33328;DHT22;19692;52.998;9.116;2023-05-07T04:34:56;9.40;99.90
33328;DHT22;19692;52.998;9.116;2023-05-07T04:37:22;9.40;99.90
33328;DHT22;19692;52.998;9.116;2023-05-07T04:39:48;9.50;99.90
33328;DHT22;19692;52.998;9.116;2023-05-07T04:42:17;9.50;99.90
33328;DHT22;19692;52.998;9.116;2023-05-07T04:44:44;9.60;99.90
33328;DHT22;19692;52.998;9.116;2023-05-07T04:47:10;9.50;99.90
33328;DHT22;19692;52.998;9.116;2023-05-07T04:49:38;9.50;99.90
33328;DHT22;19692;52.998;9.116;2023-05-07T04:52:04;9.50;99.90
33328;DHT22;19692;52.998;9.116;2023-05-07T04:54:30;9.50;99.90
33328;DHT22;19692;52.998;9.116;2023-05-07T04:56:56;9.40;99.90
33328;DHT22;19692;52.998;9.116;2023-05-07T04:59:21;9.40;99.90
33328;DHT22;19692;52.998;9.116;2023-05-07T05:01:47;9.50;99.90
33328;DHT22;19692;52.998;9.116;2023-05-07T05:04:13;9.50;99.90
33328;DHT22;19692;52.998;9.116;2023-05-07T05:06:39;9.60;99.90
33328;DHT22;19692;52.998;9.116;2023-05-07T05:09:05;9.60;99.90
33328;DHT22;19692;52.998;9.116;2023-05-07T05:11:31;9.60;99.90
33328;DHT22;19692;52.998;9.116;2023-05-07T05:13:58;9.70;99.90
33328;DHT22;19692;52.998;9.116;2023-05-07T05:16:24;9.70;99.90
33328;DHT22;19692;52.998;9.116;2023-05-07T05:18:50;9.60;99.90
33328;DHT22;19692;52.998;9.116;2023-05-07T05:21:17;9.60;99.90
33328;DHT22;19692;52.998;9.116;2023-05-07T05:23:43;9.60;99.90
33328;DHT22;19692;52.998;9.116;2023-05-07T05:26:09;9.70;99.90
33328;DHT22;19692;52.998;9.116;2023-05-07T05:28:34;9.60;99.90
33328;DHT22;19692;52.998;9.116;2023-05-07T05:31:00;9.60;99.90
33328;DHT22;19692;52.998;9.116;2023-05-07T05:33:26;9.70;99.90
33328;DHT22;19692;52.998;9.116;2023-05-07T05:35:54;9.80;99.90
33328;DHT22;19692;52.998;9.116;2023-05-07T05:38:19;9.80;99.90
33328;DHT22;19692;52.998;9.116;2023-05-07T05:40:46;9.80;99.90
33328;DHT22;19692;52.998;9.116;2023-05-07T05:43:13;9.80;99.90
33328;DHT22;19692;52.998;9.116;2023-05-07T05:45:39;9.70;99.90
33328;DHT22;19692;52.998;9.116;2023-05-07T05:48:05;9.80;99.90
33328;DHT22;19692;52.998;9.116;2023-05-07T05:50:31;9.80;99.90
33328;DHT22;19692;52.998;9.116;2023-05-07T05:52:57;9.70;99.90
33328;DHT22;19692;52.998;9.116;2023-05-07T05:55:23;9.80;99.90
33328;DHT22;19692;52.998;9.116;2023-05-07T05:57:49;9.80;99.90
33328;DHT22;19692;52.998;9.116;2023-05-07T06:00:16;9.80;99.90
33328;DHT22;19692;52.998;9.116;2023-05-07T06:02:41;9.90;99.90
33328;DHT22;19692;52.998;9.116;2023-05-07T06:05:08;9.90;99.90
33328;DHT22;19692;52.998;9.116;2023-05-07T06:07:34;9.80;99.90
33328;DHT22;19692;52.998;9.116;2023-05-07T06:10:01;9.70;99.90
33328;DHT22;19692;52.998;9.116;2023-05-07T06:12:26;9.70;99.90
33328;DHT22;19692;52.998;9.116;2023-05-07T06:14:52;9.70;99.90
33328;DHT22;19692;52.998;9.116;2023-05-07T06:17:18;9.80;99.90
33328;DHT22;19692;52.998;9.116;2023-05-07T06:19:44;9.90;99.90
33328;DHT22;19692;52.998;9.116;2023-05-07T06:22:10;10.00;99.90
33328;DHT22;19692;52.998;9.116;2023-05-07T06:24:35;10.10;99.90
33328;DHT22;19692;52.998;9.116;2023-05-07T06:27:01;10.10;99.90
33328;DHT22;19692;52.998;9.116;2023-05-07T06:29:27;10.10;99.90
33328;DHT22;19692;52.998;9.116;2023-05-07T06:31:53;10.10;99.90
33328;DHT22;19692;52.998;9.116;2023-05-07T06:34:19;10.10;99.90
33328;DHT22;19692;52.998;9.116;2023-05-07T06:36:44;10.10;99.90
33328;DHT22;19692;52.998;9.116;2023-05-07T06:39:10;10.10;99.90
33328;DHT22;19692;52.998;9.116;2023-05-07T06:41:36;10.00;99.90
33328;DHT22;19692;52.998;9.116;2023-05-07T06:44:02;10.00;99.90
33328;DHT22;19692;52.998;9.116;2023-05-07T06:46:28;10.10;99.90
33328;DHT22;19692;52.998;9.116;2023-05-07T06:48:54;10.10;99.90
33328;DHT22;19692;52.998;9.116;2023-05-07T06:51:22;10.00;99.90
33328;DHT22;19692;52.998;9.116;2023-05-07T06:53:47;10.10;99.90
33328;DHT22;19692;52.998;9.116;2023-05-07T06:56:13;10.10;99.90
33328;DHT22;19692;52.998;9.116;2023-05-07T06:58:39;10.10;99.90
33328;DHT22;19692;52.998;9.116;2023-05-07T07:01:04;10.20;99.90
33328;DHT22;19692;52.998;9.116;2023-05-07T07:03:30;10.30;99.90
33328;DHT22;19692;52.998;9.116;2023-05-07T07:05:56;10.20;99.90
33328;DHT22;19692;52.998;9.116;2023-05-07T07:08:22;10.30;99.90
33328;DHT22;19692;52.998;9.116;2023-05-07T07:10:48;10.40;99.90
33328;DHT22;19692;52.998;9.116;2023-05-07T07:13:14;10.50;99.90
33328;DHT22;19692;52.998;9.116;2023-05-07T07:15:40;10.50;99.90
33328;DHT22;19692;52.998;9.116;2023-05-07T07:18:06;10.50;99.90
33328;DHT22;19692;52.998;9.116;2023-05-07T07:20:32;10.50;99.90
33328;DHT22;19692;52.998;9.116;2023-05-07T07:22:57;10.50;99.90
33328;DHT22;19692;52.998;9.116;2023-05-07T07:25:23;10.50;99.90
33328;DHT22;19692;52.998;9.116;2023-05-07T07:27:49;10.50;99.90
33328;DHT22;19692;52.998;9.116;2023-05-07T07:30:15;10.60;99.90
33328;DHT22;19692;52.998;9.116;2023-05-07T07:32:41;10.60;99.90
33328;DHT22;19692;52.998;9.116;2023-05-07T07:35:08;10.60;99.90
33328;DHT22;19692;52.998;9.116;2023-05-07T07:37:34;10.70;99.90
33328;DHT22;19692;52.998;9.116;2023-05-07T07:40:00;10.70;99.90
33328;DHT22;19692;52.998;9.116;2023-05-07T07:42:25;10.80;99.90
33328;DHT22;19692;52.998;9.116;2023-05-07T07:44:52;10.90;99.90
33328;DHT22;19692;52.998;9.116;2023-05-07T07:47:17;10.90;99.90
33328;DHT22;19692;52.998;9.116;2023-05-07T07:49:43;10.90;99.90
33328;DHT22;19692;52.998;9.116;2023-05-07T07:52:09;11.00;99.90
33328;DHT22;19692;52.998;9.116;2023-05-07T07:54:34;11.20;99.90
33328;DHT22;19692;52.998;9.116;2023-05-07T07:57:00;11.10;99.90
33328;DHT22;19692;52.998;9.116;2023-05-07T07:59:26;11.20;99.90
33328;DHT22;19692;52.998;9.116;2023-05-07T08:01:52;11.40;99.90
33328;DHT22;19692;52.998;9.116;2023-05-07T08:04:22;11.40;99.90
33328;DHT22;19692;52.998;9.116;2023-05-07T08:06:48;11.30;99.90
33328;DHT22;19692;52.998;9.116;2023-05-07T08:09:13;11.30;99.90
33328;DHT22;19692;52.998;9.116;2023-05-07T08:11:39;11.40;99.90
33328;DHT22;19692;52.998;9.116;2023-05-07T08:14:05;11.10;99.90
33328;DHT22;19692;52.998;9.116;2023-05-07T08:16:31;11.10;99.90
33328;DHT22;19692;52.998;9.116;2023-05-07T08:18:57;11.30;99.90
33328;DHT22;19692;52.998;9.116;2023-05-07T08:21:23;11.50;99.90
33328;DHT22;19692;52.998;9.116;2023-05-07T08:23:49;11.70;99.90
33328;DHT22;19692;52.998;9.116;2023-05-07T08:26:14;11.90;99.90
33328;DHT22;19692;52.998;9.116;2023-05-07T08:28:40;11.90;99.90
33328;DHT22;19692;52.998;9.116;2023-05-07T08:31:06;12.00;99.90
33328;DHT22;19692;52.998;9.116;2023-05-07T08:33:32;11.90;99.90
33328;DHT22;19692;52.998;9.116;2023-05-07T08:35:57;12.00;99.90
33328;DHT22;19692;52.998;9.116;2023-05-07T08:38:23;12.00;99.90
33328;DHT22;19692;52.998;9.116;2023-05-07T08:40:49;11.90;99.90
33328;DHT22;19692;52.998;9.116;2023-05-07T08:43:15;12.00;99.90
33328;DHT22;19692;52.998;9.116;2023-05-07T08:45:41;11.90;99.90
33328;DHT22;19692;52.998;9.116;2023-05-07T08:48:15;11.90;99.90
33328;DHT22;19692;52.998;9.116;2023-05-07T08:50:41;12.00;99.90
33328;DHT22;19692;52.998;9.116;2023-05-07T08:53:07;12.00;99.90
33328;DHT22;19692;52.998;9.116;2023-05-07T08:55:33;12.20;99.90
33328;DHT22;19692;52.998;9.116;2023-05-07T08:58:00;12.30;99.90
33328;DHT22;19692;52.998;9.116;2023-05-07T09:00:26;12.40;99.90
33328;DHT22;19692;52.998;9.116;2023-05-07T09:02:53;12.40;99.90
33328;DHT22;19692;52.998;9.116;2023-05-07T09:05:19;12.50;99.90
33328;DHT22;19692;52.998;9.116;2023-05-07T09:07:45;12.40;99.90
33328;DHT22;19692;52.998;9.116;2023-05-07T09:10:11;12.50;99.90
33328;DHT22;19692;52.998;9.116;2023-05-07T09:12:38;12.50;99.90
33328;DHT22;19692;52.998;9.116;2023-05-07T09:15:05;12.40;99.90
33328;DHT22;19692;52.998;9.116;2023-05-07T09:17:31;12.40;99.90
33328;DHT22;19692;52.998;9.116;2023-05-07T09:20:05;12.30;99.90
33328;DHT22;19692;52.998;9.116;2023-05-07T09:22:32;12.40;99.90
33328;DHT22;19692;52.998;9.116;2023-05-07T09:24:59;12.50;99.90
33328;DHT22;19692;52.998;9.116;2023-05-07T09:27:25;12.50;99.90
33328;DHT22;19692;52.998;9.116;2023-05-07T09:29:51;12.60;99.90
33328;DHT22;19692;52.998;9.116;2023-05-07T09:32:17;12.70;99.90
33328;DHT22;19692;52.998;9.116;2023-05-07T09:34:44;12.80;99.90
33328;DHT22;19692;52.998;9.116;2023-05-07T09:37:12;12.90;99.90
33328;DHT22;19692;52.998;9.116;2023-05-07T09:39:42;12.90;99.90
33328;DHT22;19692;52.998;9.116;2023-05-07T09:42:12;13.00;99.90
33328;DHT22;19692;52.998;9.116;2023-05-07T09:44:40;13.00;99.90
33328;DHT22;19692;52.998;9.116;2023-05-07T09:47:07;13.00;99.90
33328;DHT22;19692;52.998;9.116;2023-05-07T09:49:37;13.30;99.90
33328;DHT22;19692;52.998;9.116;2023-05-07T09:52:06;13.40;99.90
33328;DHT22;19692;52.998;9.116;2023-05-07T09:54:35;13.50;99.90
33328;DHT22;19692;52.998;9.116;2023-05-07T09:57:04;13.60;99.90
33328;DHT22;19692;52.998;9.116;2023-05-07T09:59:34;13.70;99.90
33328;DHT22;19692;52.998;9.116;2023-05-07T10:02:03;13.80;99.90
33328;DHT22;19692;52.998;9.116;2023-05-07T10:04:29;13.70;99.90
33328;DHT22;19692;52.998;9.116;2023-05-07T10:06:56;13.60;99.90
33328;DHT22;19692;52.998;9.116;2023-05-07T10:09:23;13.50;99.90
33328;DHT22;19692;52.998;9.116;2023-05-07T10:11:51;13.50;99.90
33328;DHT22;19692;52.998;9.116;2023-05-07T10:14:17;13.40;99.90
33328;DHT22;19692;52.998;9.116;2023-05-07T10:16:46;13.50;99.90
33328;DHT22;19692;52.998;9.116;2023-05-07T10:19:13;13.50;99.90
33328;DHT22;19692;52.998;9.116;2023-05-07T10:21:44;13.60;99.90
33328;DHT22;19692;52.998;9.116;2023-05-07T10:24:28;13.60;99.90
33328;DHT22;19692;52.998;9.116;2023-05-07T10:26:59;13.80;99.90
33328;DHT22;19692;52.998;9.116;2023-05-07T10:32:09;14.30;99.90
33328;DHT22;19692;52.998;9.116;2023-05-07T10:34:39;14.60;99.90
33328;DHT22;19692;52.998;9.116;2023-05-07T10:37:06;14.80;99.90
33328;DHT22;19692;52.998;9.116;2023-05-07T10:39:32;14.80;99.90
33328;DHT22;19692;52.998;9.116;2023-05-07T10:42:10;14.90;99.90
33328;DHT22;19692;52.998;9.116;2023-05-07T10:44:37;15.00;99.90
33328;DHT22;19692;52.998;9.116;2023-05-07T10:47:07;15.20;99.90
33328;DHT22;19692;52.998;9.116;2023-05-07T10:52:31;15.40;99.90
33328;DHT22;19692;52.998;9.116;2023-05-07T10:57:45;15.50;99.90
33328;DHT22;19692;52.998;9.116;2023-05-07T11:05:31;15.50;99.90
33328;DHT22;19692;52.998;9.116;2023-05-07T11:08:01;15.60;99.90
33328;DHT22;19692;52.998;9.116;2023-05-07T11:10:54;15.70;99.90
33328;DHT22;19692;52.998;9.116;2023-05-07T11:14:00;15.70;99.90
33328;DHT22;19692;52.998;9.116;2023-05-07T11:16:25;15.90;99.90
33328;DHT22;19692;52.998;9.116;2023-05-07T11:18:55;15.90;99.90
33328;DHT22;19692;52.998;9.116;2023-05-07T11:21:38;15.80;99.90
33328;DHT22;19692;52.998;9.116;2023-05-07T11:24:09;16.00;99.90
33328;DHT22;19692;52.998;9.116;2023-05-07T11:29:17;16.00;99.90
33328;DHT22;19692;52.998;9.116;2023-05-07T11:31:49;16.10;99.90
33328;DHT22;19692;52.998;9.116;2023-05-07T11:34:21;16.20;99.90
33328;DHT22;19692;52.998;9.116;2023-05-07T11:36:51;16.10;99.90
33328;DHT22;19692;52.998;9.116;2023-05-07T11:39:29;16.00;99.90
33328;DHT22;19692;52.998;9.116;2023-05-07T11:41:59;16.10;99.90
33328;DHT22;19692;52.998;9.116;2023-05-07T11:44:25;16.20;99.90
33328;DHT22;19692;52.998;9.116;2023-05-07T11:47:16;16.40;99.90
33328;DHT22;19692;52.998;9.116;2023-05-07T11:49:43;16.50;99.90
33328;DHT22;19692;52.998;9.116;2023-05-07T11:52:13;16.70;99.90
33328;DHT22;19692;52.998;9.116;2023-05-07T11:54:38;16.90;99.90
33328;DHT22;19692;52.998;9.116;2023-05-07T11:57:04;17.00;99.90
33328;DHT22;19692;52.998;9.116;2023-05-07T11:59:38;16.80;99.90
33328;DHT22;19692;52.998;9.116;2023-05-07T12:02:07;16.50;99.90
33328;DHT22;19692;52.998;9.116;2023-05-07T12:04:33;16.60;99.90
33328;DHT22;19692;52.998;9.116;2023-05-07T12:06:59;16.70;99.90
33328;DHT22;19692;52.998;9.116;2023-05-07T12:09:25;17.00;99.90
33328;DHT22;19692;52.998;9.116;2023-05-07T12:11:51;17.30;99.90
33328;DHT22;19692;52.998;9.116;2023-05-07T12:14:18;17.40;99.90
33328;DHT22;19692;52.998;9.116;2023-05-07T12:16:44;17.40;99.90
33328;DHT22;19692;52.998;9.116;2023-05-07T12:19:10;18.00;99.90
33328;DHT22;19692;52.998;9.116;2023-05-07T12:21:40;18.60;99.90
33328;DHT22;19692;52.998;9.116;2023-05-07T12:24:07;19.00;99.90
33328;DHT22;19692;52.998;9.116;2023-05-07T12:26:37;19.40;99.90
33328;DHT22;19692;52.998;9.116;2023-05-07T12:29:04;19.40;99.90
33328;DHT22;19692;52.998;9.116;2023-05-07T12:31:30;19.20;99.90
33328;DHT22;19692;52.998;9.116;2023-05-07T12:33:56;18.80;99.90
33328;DHT22;19692;52.998;9.116;2023-05-07T12:36:21;18.60;99.90
33328;DHT22;19692;52.998;9.116;2023-05-07T12:38:49;18.30;99.90
33328;DHT22;19692;52.998;9.116;2023-05-07T12:41:15;18.20;99.90
33328;DHT22;19692;52.998;9.116;2023-05-07T12:43:44;18.40;99.90
33328;DHT22;19692;52.998;9.116;2023-05-07T12:46:10;18.50;99.90
33328;DHT22;19692;52.998;9.116;2023-05-07T12:48:37;18.50;99.90
33328;DHT22;19692;52.998;9.116;2023-05-07T12:51:05;18.00;99.90
33328;DHT22;19692;52.998;9.116;2023-05-07T12:53:32;18.00;99.90
33328;DHT22;19692;52.998;9.116;2023-05-07T12:55:59;18.10;99.90
33328;DHT22;19692;52.998;9.116;2023-05-07T13:00:53;18.10;99.90
33328;DHT22;19692;52.998;9.116;2023-05-07T13:03:34;18.00;99.90
33328;DHT22;19692;52.998;9.116;2023-05-07T13:06:06;17.70;99.90
33328;DHT22;19692;52.998;9.116;2023-05-07T13:08:35;17.50;99.90
33328;DHT22;19692;52.998;9.116;2023-05-07T13:11:03;17.30;99.90
33328;DHT22;19692;52.998;9.116;2023-05-07T13:13:34;17.20;99.90
33328;DHT22;19692;52.998;9.116;2023-05-07T13:16:01;17.30;99.90
33328;DHT22;19692;52.998;9.116;2023-05-07T13:18:29;17.30;99.90
33328;DHT22;19692;52.998;9.116;2023-05-07T13:20:56;17.30;99.90
33328;DHT22;19692;52.998;9.116;2023-05-07T13:23:22;17.20;99.90
33328;DHT22;19692;52.998;9.116;2023-05-07T13:25:49;17.10;99.90
33328;DHT22;19692;52.998;9.116;2023-05-07T13:28:16;17.10;99.90
33328;DHT22;19692;52.998;9.116;2023-05-07T13:30:42;17.00;99.90
33328;DHT22;19692;52.998;9.116;2023-05-07T13:33:08;16.80;99.90
33328;DHT22;19692;52.998;9.116;2023-05-07T13:35:34;16.80;99.90
33328;DHT22;19692;52.998;9.116;2023-05-07T13:38:00;16.80;99.90
33328;DHT22;19692;52.998;9.116;2023-05-07T13:40:25;16.70;99.90
33328;DHT22;19692;52.998;9.116;2023-05-07T13:42:51;16.90;99.90
33328;DHT22;19692;52.998;9.116;2023-05-07T13:45:20;16.90;99.90
33328;DHT22;19692;52.998;9.116;2023-05-07T13:47:46;16.90;99.90
33328;DHT22;19692;52.998;9.116;2023-05-07T13:50:12;16.80;99.90
33328;DHT22;19692;52.998;9.116;2023-05-07T13:52:42;16.80;99.90
33328;DHT22;19692;52.998;9.116;2023-05-07T13:55:09;17.10;99.90
33328;DHT22;19692;52.998;9.116;2023-05-07T13:57:36;17.30;99.90
33328;DHT22;19692;52.998;9.116;2023-05-07T14:00:03;17.60;99.90
33328;DHT22;19692;52.998;9.116;2023-05-07T14:02:30;17.80;99.90
33328;DHT22;19692;52.998;9.116;2023-05-07T14:04:56;17.80;99.90
33328;DHT22;19692;52.998;9.116;2023-05-07T14:07:22;17.90;99.90
33328;DHT22;19692;52.998;9.116;2023-05-07T14:09:48;17.90;99.90
33328;DHT22;19692;52.998;9.116;2023-05-07T14:12:14;18.20;99.90
33328;DHT22;19692;52.998;9.116;2023-05-07T14:14:39;18.40;99.90
33328;DHT22;19692;52.998;9.116;2023-05-07T14:17:05;18.50;99.90
33328;DHT22;19692;52.998;9.116;2023-05-07T14:19:40;18.60;99.90
33328;DHT22;19692;52.998;9.116;2023-05-07T14:22:06;18.80;99.90
33328;DHT22;19692;52.998;9.116;2023-05-07T14:24:31;18.80;99.90
33328;DHT22;19692;52.998;9.116;2023-05-07T14:26:57;18.70;99.90
33328;DHT22;19692;52.998;9.116;2023-05-07T14:29:25;18.50;99.90
33328;DHT22;19692;52.998;9.116;2023-05-07T14:31:51;18.60;99.90
33328;DHT22;19692;52.998;9.116;2023-05-07T14:34:17;18.80;99.90
33328;DHT22;19692;52.998;9.116;2023-05-07T14:36:42;19.00;99.90
33328;DHT22;19692;52.998;9.116;2023-05-07T14:39:09;18.90;99.90
33328;DHT22;19692;52.998;9.116;2023-05-07T14:41:35;18.50;99.90
33328;DHT22;19692;52.998;9.116;2023-05-07T14:44:01;18.20;99.90
33328;DHT22;19692;52.998;9.116;2023-05-07T14:46:29;18.00;99.90
33328;DHT22;19692;52.998;9.116;2023-05-07T14:48:56;18.10;99.90
33328;DHT22;19692;52.998;9.116;2023-05-07T14:51:22;17.80;99.90
33328;DHT22;19692;52.998;9.116;2023-05-07T14:53:50;17.70;99.90
33328;DHT22;19692;52.998;9.116;2023-05-07T14:56:16;17.40;99.90
33328;DHT22;19692;52.998;9.116;2023-05-07T14:58:43;17.60;99.90
33328;DHT22;19692;52.998;9.116;2023-05-07T15:01:09;17.70;99.90
33328;DHT22;19692;52.998;9.116;2023-05-07T15:03:35;17.60;99.90
33328;DHT22;19692;52.998;9.116;2023-05-07T15:06:01;17.80;99.90
33328;DHT22;19692;52.998;9.116;2023-05-07T15:08:27;18.40;99.90
33328;DHT22;19692;52.998;9.116;2023-05-07T15:10:53;18.70;99.90
33328;DHT22;19692;52.998;9.116;2023-05-07T15:13:20;18.80;99.90
33328;DHT22;19692;52.998;9.116;2023-05-07T15:15:46;18.40;99.90
33328;DHT22;19692;52.998;9.116;2023-05-07T15:18:12;18.30;99.90
33328;DHT22;19692;52.998;9.116;2023-05-07T15:20:38;18.00;99.90
33328;DHT22;19692;52.998;9.116;2023-05-07T15:23:04;17.80;99.90
33328;DHT22;19692;52.998;9.116;2023-05-07T15:25:31;17.60;99.90
33328;DHT22;19692;52.998;9.116;2023-05-07T15:27:58;17.40;99.90
33328;DHT22;19692;52.998;9.116;2023-05-07T15:30:24;17.10;99.90
33328;DHT22;19692;52.998;9.116;2023-05-07T15:32:50;17.00;99.90
33328;DHT22;19692;52.998;9.116;2023-05-07T15:35:16;16.90;99.90
33328;DHT22;19692;52.998;9.116;2023-05-07T15:37:49;16.90;99.90
33328;DHT22;19692;52.998;9.116;2023-05-07T15:40:15;16.80;99.90
33328;DHT22;19692;52.998;9.116;2023-05-07T15:42:41;16.80;99.90
33328;DHT22;19692;52.998;9.116;2023-05-07T15:45:08;16.70;99.90
33328;DHT22;19692;52.998;9.116;2023-05-07T15:47:35;16.50;99.90
33328;DHT22;19692;52.998;9.116;2023-05-07T15:50:01;16.40;99.90
33328;DHT22;19692;52.998;9.116;2023-05-07T15:52:27;16.50;99.90
33328;DHT22;19692;52.998;9.116;2023-05-07T15:54:54;16.70;99.90